Time;durP1;ratioP1;P1;durP2;ratioP2;P2;SDS_P1;SDS_P2;PMS_P1;PMS_P2;Temp;Humidity;BMP_temperature;BMP_pressure;BME280_temperature;BME280_humidity;BME280_pressure;Samples;Min_cycle;Max_cycle;Signal;HPM_P1;HPM_P2
2022/05/26 00:00:00;;;;;;;1999.90;999.90;;;15.90;99.90;;;;;;5033427;28;20998;-72
2022/05/26 00:02:26;;;;;;;1999.90;999.90;;;15.90;99.90;;;;;;5034269;28;20448;-71
2022/05/26 00:04:52;;;;;;;1999.90;999.90;;;15.90;99.90;;;;;;5034013;28;21027;-71
2022/05/26 00:07:18;;;;;;;1999.90;999.90;;;16.00;99.90;;;;;;5034105;28;20432;-71
2022/05/26 00:09:43;;;;;;;1999.90;999.90;;;16.00;99.90;;;;;;5034146;28;20549;-72
2022/05/26 00:12:12;;;;;;;1999.90;999.90;;;15.90;99.90;;;;;;5034142;28;20165;-72
2022/05/26 00:14:40;;;;;;;1999.90;999.90;;;16.00;99.90;;;;;;5033922;28;20253;-72
2022/05/26 00:17:06;;;;;;;1999.90;999.90;;;15.90;99.90;;;;;;5033942;28;20528;-72
2022/05/26 00:19:32;;;;;;;1999.90;999.90;;;15.90;99.90;;;;;;5033877;28;20537;-72
2022/05/26 00:21:58;;;;;;;1999.90;999.90;;;15.90;99.90;;;;;;5033905;28;20227;-71
2022/05/26 00:24:24;;;;;;;1999.90;999.90;;;15.90;99.90;;;;;;5033543;28;20406;-72
2022/05/26 00:26:50;;;;;;;1999.90;999.90;;;15.90;99.90;;;;;;5033673;28;20206;-71
2022/05/26 00:29:16;;;;;;;1999.90;999.90;;;15.80;99.90;;;;;;5033662;28;20425;-72
2022/05/26 00:31:41;;;;;;;1999.90;999.90;;;15.80;99.90;;;;;;5033775;28;20182;-72
2022/05/26 00:34:07;;;;;;;1999.90;999.90;;;15.80;99.90;;;;;;5033464;28;20245;-71
2022/05/26 00:36:41;;;;;;;1999.90;999.90;;;15.80;99.90;;;;;;5033551;28;20195;-72
2022/05/26 00:39:15;;;;;;;1999.90;999.90;;;15.80;99.90;;;;;;5033593;28;20192;-72
2022/05/26 00:42:08;;;;;;;1999.90;999.90;;;15.70;99.90;;;;;;5033671;28;20899;-73
2022/05/26 00:44:35;;;;;;;1999.90;999.90;;;15.80;99.90;;;;;;5029062;28;20419;-72
2022/05/26 00:47:23;;;;;;;1999.90;999.90;;;15.80;99.90;;;;;;5033456;28;20430;-72
2022/05/26 00:50:03;;;;;;;1999.90;999.90;;;15.70;99.90;;;;;;5033398;28;20757;-72
2022/05/26 00:52:35;;;;;;;1999.90;999.90;;;15.70;99.90;;;;;;5033421;28;20416;-71
2022/05/26 00:55:07;;;;;;;1999.90;999.90;;;15.70;99.90;;;;;;5032855;28;20850;-72
2022/05/26 00:58:02;;;;;;;1999.90;999.90;;;15.70;99.90;;;;;;5033222;28;20437;-71
2022/05/26 01:00:33;;;;;;;1999.90;999.90;;;15.60;99.90;;;;;;5033145;28;20452;-72
2022/05/26 01:03:46;;;;;;;1999.90;999.90;;;15.70;99.90;;;;;;5033187;28;20821;-72
2022/05/26 01:06:24;;;;;;;1999.90;999.90;;;15.60;99.90;;;;;;4933139;29;20499;-72
2022/05/26 01:09:02;;;;;;;1999.90;999.90;;;15.60;99.90;;;;;;5020166;28;20413;-72
2022/05/26 01:11:32;;;;;;;1999.90;999.90;;;15.60;99.90;;;;;;5032922;28;20836;-72
2022/05/26 01:14:07;;;;;;;1999.90;999.90;;;15.50;99.90;;;;;;5032813;28;20450;-71
2022/05/26 01:17:08;;;;;;;1999.90;999.90;;;15.50;99.90;;;;;;5032800;28;20423;-72
2022/05/26 01:19:55;;;;;;;1999.90;999.90;;;15.50;99.90;;;;;;5032772;28;20539;-72
2022/05/26 01:22:45;;;;;;;1999.90;999.90;;;15.50;99.90;;;;;;5032727;28;20552;-72
2022/05/26 01:25:35;;;;;;;1999.90;999.90;;;15.50;99.90;;;;;;5032458;28;20804;-72
2022/05/26 01:28:37;;;;;;;1999.90;999.90;;;15.50;99.90;;;;;;5032441;28;20522;-72
2022/05/26 01:31:33;;;;;;;1999.90;999.90;;;15.50;99.90;;;;;;5032757;28;20480;-72
2022/05/26 01:34:11;;;;;;;1999.90;999.90;;;15.50;99.90;;;;;;5032426;28;20401;-72
2022/05/26 01:36:43;;;;;;;1999.90;999.90;;;15.50;99.90;;;;;;5032483;28;20430;-71
2022/05/26 01:39:19;;;;;;;1999.90;999.90;;;15.50;99.90;;;;;;5032369;28;20456;-72
2022/05/26 01:42:23;;;;;;;1999.90;999.90;;;15.50;99.90;;;;;;5032476;28;20403;-71
2022/05/26 01:45:16;;;;;;;1999.90;999.90;;;15.50;99.90;;;;;;5032154;28;20395;-72
2022/05/26 01:48:06;;;;;;;1999.90;999.90;;;15.50;99.90;;;;;;5032267;28;20416;-72
2022/05/26 01:50:51;;;;;;;1999.90;999.90;;;15.50;99.90;;;;;;5032351;28;20395;-72
2022/05/26 01:53:45;;;;;;;1999.90;999.90;;;15.50;99.90;;;;;;5032362;28;20434;-71
2022/05/26 01:56:24;;;;;;;1999.90;999.90;;;15.60;99.90;;;;;;5031995;28;20420;-72
2022/05/26 01:58:59;;;;;;;1999.90;999.90;;;15.50;99.90;;;;;;5032095;28;20431;-72
2022/05/26 02:01:28;;;;;;;1999.90;999.90;;;15.50;99.90;;;;;;5032250;28;20409;-72
2022/05/26 02:03:57;;;;;;;1999.90;999.90;;;15.50;99.90;;;;;;5032008;28;20401;-72
2022/05/26 02:06:29;;;;;;;1999.90;999.90;;;15.50;99.90;;;;;;5031863;28;20428;-72
2022/05/26 02:09:18;;;;;;;1999.90;999.90;;;15.60;99.90;;;;;;5032167;28;20907;-72
2022/05/26 02:12:03;;;;;;;1999.90;999.90;;;15.50;99.90;;;;;;5032007;28;20397;-72
2022/05/26 02:14:38;;;;;;;1999.90;999.90;;;15.60;99.90;;;;;;5031736;28;20409;-72
2022/05/26 02:17:15;;;;;;;1999.90;999.90;;;15.60;99.90;;;;;;5031992;28;20414;-71
2022/05/26 02:19:48;;;;;;;1999.90;999.90;;;15.60;99.90;;;;;;5031876;28;20571;-72
2022/05/26 02:22:25;;;;;;;1999.90;999.90;;;15.60;99.90;;;;;;5031941;28;20514;-72
2022/05/26 02:25:10;;;;;;;1999.90;999.90;;;15.50;99.90;;;;;;5031422;28;20492;-72
2022/05/26 02:27:37;;;;;;;1999.90;999.90;;;15.50;99.90;;;;;;5031621;28;20441;-72
2022/05/26 02:30:04;;;;;;;1999.90;999.90;;;15.50;99.90;;;;;;5031888;28;20530;-72
2022/05/26 02:32:58;;;;;;;1999.90;999.90;;;15.50;99.90;;;;;;5031761;28;20454;-71
2022/05/26 02:35:37;;;;;;;1999.90;999.90;;;15.50;99.90;;;;;;5030830;28;20494;-72
2022/05/26 02:38:23;;;;;;;1999.90;999.90;;;15.50;99.90;;;;;;5031731;28;20431;-72
2022/05/26 02:40:51;;;;;;;1999.90;999.90;;;15.50;99.90;;;;;;5031280;28;20523;-72
2022/05/26 02:43:22;;;;;;;1999.90;999.90;;;15.50;99.90;;;;;;5031724;28;20830;-72
2022/05/26 02:46:14;;;;;;;1999.90;999.90;;;15.50;99.90;;;;;;5031381;28;20402;-72
2022/05/26 02:48:51;;;;;;;1999.90;999.90;;;15.50;99.90;;;;;;5031669;28;20398;-72
2022/05/26 02:51:24;;;;;;;1999.90;999.90;;;15.50;99.90;;;;;;5031928;28;20892;-71
2022/05/26 02:54:23;;;;;;;1999.90;999.90;;;15.50;99.90;;;;;;5031570;28;20407;-72
2022/05/26 02:57:24;;;;;;;1999.90;999.90;;;15.40;99.90;;;;;;5031479;28;20431;-72
2022/05/26 03:00:15;;;;;;;1999.90;999.90;;;15.30;99.90;;;;;;5031547;28;20456;-72
2022/05/26 03:03:02;;;;;;;1999.90;999.90;;;15.30;99.90;;;;;;4985294;28;20845;-72
2022/05/26 03:05:50;;;;;;;1999.90;999.90;;;15.40;99.90;;;;;;5031325;28;20398;-72
2022/05/26 03:08:19;;;;;;;1999.90;999.90;;;15.40;99.90;;;;;;5031538;28;20410;-71
2022/05/26 03:10:53;;;;;;;1999.90;999.90;;;15.30;99.90;;;;;;5031435;28;20400;-71
2022/05/26 03:13:19;;;;;;;1999.90;999.90;;;15.30;99.90;;;;;;5031526;28;20491;-71
2022/05/26 03:15:45;;;;;;;1999.90;999.90;;;15.30;99.90;;;;;;5031161;28;20402;-71
2022/05/26 03:18:11;;;;;;;1999.90;999.90;;;15.30;99.90;;;;;;5031342;28;20468;-72
2022/05/26 03:20:37;;;;;;;1999.90;999.90;;;15.30;99.90;;;;;;5031358;28;20525;-72
2022/05/26 03:23:03;;;;;;;1999.90;999.90;;;15.30;99.90;;;;;;5031390;28;20417;-72
2022/05/26 03:25:28;;;;;;;1999.90;999.90;;;15.30;99.90;;;;;;5031003;28;20402;-72
2022/05/26 03:27:54;;;;;;;1999.90;999.90;;;15.30;99.90;;;;;;5031591;28;20280;-72
2022/05/26 03:30:20;;;;;;;1999.90;999.90;;;15.30;99.90;;;;;;5031372;28;20177;-72
2022/05/26 03:32:46;;;;;;;1999.90;999.90;;;15.30;99.90;;;;;;5031194;28;20174;-71
2022/05/26 03:40:56;;;;;;;1999.90;999.90;;;15.20;99.90;;;;;;5034749;28;20457;-71
2022/05/26 03:43:31;;;;;;;1999.90;999.90;;;15.30;99.90;;;;;;5034831;28;20411;-71
2022/05/26 03:46:00;;;;;;;1999.90;999.90;;;15.30;99.90;;;;;;5034256;28;20835;-71
2022/05/26 03:48:27;;;;;;;1999.90;999.90;;;15.30;99.90;;;;;;5034552;28;20982;-72
2022/05/26 03:50:53;;;;;;;1999.90;999.90;;;15.30;99.90;;;;;;5034567;28;20511;-71
2022/05/26 03:53:19;;;;;;;1999.90;999.90;;;15.30;99.90;;;;;;5034519;28;20403;-71
2022/05/26 03:55:44;;;;;;;1999.90;999.90;;;15.30;99.90;;;;;;5016382;28;20196;-71
2022/05/26 03:58:10;;;;;;;1999.90;999.90;;;15.30;99.90;;;;;;5034405;28;20329;-71
2022/05/26 04:00:37;;;;;;;1999.90;999.90;;;15.30;99.90;;;;;;5034305;28;20669;-71
2022/05/26 04:03:02;;;;;;;1999.90;999.90;;;15.20;99.90;;;;;;5034333;28;20254;-71
2022/05/26 04:05:28;;;;;;;1999.90;999.90;;;15.30;99.90;;;;;;5033919;28;20568;-71
2022/05/26 04:07:54;;;;;;;1999.90;999.90;;;15.20;99.90;;;;;;5034192;28;20425;-71
2022/05/26 04:10:20;;;;;;;1999.90;999.90;;;15.20;99.90;;;;;;5034131;28;20182;-71
2022/05/26 04:12:46;;;;;;;1999.90;999.90;;;15.30;99.90;;;;;;5034164;28;20668;-71
2022/05/26 04:15:13;;;;;;;1999.90;999.90;;;15.30;99.90;;;;;;5033906;28;20404;-71
2022/05/26 04:17:39;;;;;;;1999.90;999.90;;;15.30;99.90;;;;;;5033808;28;20527;-71
2022/05/26 04:20:08;;;;;;;1999.90;999.90;;;15.30;99.90;;;;;;5033911;28;20899;-71
2022/05/26 04:22:34;;;;;;;1999.90;999.90;;;15.30;99.90;;;;;;5033902;28;20406;-71
2022/05/26 04:25:00;;;;;;;1999.90;999.90;;;15.30;99.90;;;;;;5033574;28;20391;-71
2022/05/26 04:27:29;;;;;;;1999.90;999.90;;;15.30;99.90;;;;;;5033717;28;20442;-72
2022/05/26 04:29:55;;;;;;;1999.90;999.90;;;15.20;99.90;;;;;;5033707;28;20419;-71
2022/05/26 04:32:21;;;;;;;1999.90;999.90;;;15.20;99.90;;;;;;5033807;28;20962;-71
2022/05/26 04:34:48;;;;;;;1999.90;999.90;;;15.30;99.90;;;;;;5033464;28;20456;-71
2022/05/26 04:37:15;;;;;;;1999.90;999.90;;;15.20;99.90;;;;;;5033871;28;20950;-72
2022/05/26 04:39:41;;;;;;;1999.90;999.90;;;15.30;99.90;;;;;;5033513;28;20517;-71
2022/05/26 04:42:07;;;;;;;1999.90;999.90;;;15.20;99.90;;;;;;5033594;28;20408;-71
2022/05/26 04:44:38;;;;;;;1999.90;999.90;;;15.30;99.90;;;;;;5033233;28;20407;-71
2022/05/26 04:47:04;;;;;;;1999.90;999.90;;;15.30;99.90;;;;;;5033104;28;20190;-72
2022/05/26 04:49:30;;;;;;;1999.90;999.90;;;15.30;99.90;;;;;;5033434;28;20407;-72
2022/05/26 04:51:56;;;;;;;1999.90;999.90;;;15.30;99.90;;;;;;5033307;28;20407;-71
2022/05/26 04:54:23;;;;;;;1999.90;999.90;;;15.30;99.90;;;;;;5033049;28;20411;-72
2022/05/26 04:56:49;;;;;;;1999.90;999.90;;;15.30;99.90;;;;;;5033169;28;20466;-72
2022/05/26 04:59:15;;;;;;;1999.90;999.90;;;15.30;99.90;;;;;;5033301;28;20537;-72
2022/05/26 05:01:42;;;;;;;1999.90;999.90;;;15.40;99.90;;;;;;5033262;28;20797;-72
2022/05/26 05:04:08;;;;;;;1999.90;999.90;;;15.30;99.90;;;;;;5032861;28;20403;-72
2022/05/26 05:06:34;;;;;;;1999.90;999.90;;;15.40;99.90;;;;;;5033054;28;20423;-72
2022/05/26 05:09:00;;;;;;;1999.90;999.90;;;15.40;99.90;;;;;;5033000;28;20899;-71
2022/05/26 05:11:26;;;;;;;1999.90;999.90;;;15.40;99.90;;;;;;5032913;28;20412;-72
2022/05/26 05:13:52;;;;;;;1999.90;999.90;;;15.50;99.90;;;;;;5032992;28;20404;-71
2022/05/26 05:16:22;;;;;;;1999.90;999.90;;;15.50;99.90;;;;;;5032599;28;20181;-71
2022/05/26 05:18:50;;;;;;;1999.90;999.90;;;15.50;99.90;;;;;;5033172;28;20395;-71
2022/05/26 05:21:20;;;;;;;1999.90;999.90;;;15.60;99.90;;;;;;5032726;28;21002;-71
2022/05/26 05:23:53;;;;;;;1999.90;999.90;;;15.60;99.90;;;;;;5032694;28;20847;-71
2022/05/26 05:26:21;;;;;;;1999.90;999.90;;;15.60;99.90;;;;;;5032325;28;20432;-72
2022/05/26 05:28:54;;;;;;;1999.90;999.90;;;15.70;99.90;;;;;;5032673;28;20414;-71
2022/05/26 05:31:37;;;;;;;1999.90;999.90;;;15.70;99.90;;;;;;5032697;28;20759;-71
2022/05/26 05:34:09;;;;;;;1999.90;999.90;;;15.80;99.90;;;;;;5032301;28;20400;-71
2022/05/26 05:36:35;;;;;;;1999.90;999.90;;;15.80;99.90;;;;;;5032481;28;20421;-71
2022/05/26 05:39:03;;;;;;;1999.90;999.90;;;15.80;99.90;;;;;;5032374;28;20406;-71
2022/05/26 05:41:31;;;;;;;1999.90;999.90;;;15.80;99.90;;;;;;5032471;28;20414;-71
2022/05/26 05:43:57;;;;;;;1999.90;999.90;;;15.80;99.90;;;;;;5032394;28;20397;-71
2022/05/26 05:46:22;;;;;;;1999.90;999.90;;;15.90;99.90;;;;;;5032160;28;20429;-72
2022/05/26 05:48:48;;;;;;;1999.90;999.90;;;15.90;99.90;;;;;;5032297;28;20411;-71
2022/05/26 05:51:15;;;;;;;1999.90;999.90;;;16.00;99.90;;;;;;5032349;28;20176;-71
2022/05/26 05:53:42;;;;;;;1999.90;999.90;;;16.00;99.90;;;;;;5032271;28;20170;-71
2022/05/26 05:56:09;;;;;;;1999.90;999.90;;;16.00;99.90;;;;;;5031905;28;20405;-72
2022/05/26 05:58:34;;;;;;;1999.90;999.90;;;16.00;99.90;;;;;;5031622;28;20794;-72
2022/05/26 06:01:00;;;;;;;1999.90;999.90;;;16.00;99.90;;;;;;5032118;28;20459;-71
2022/05/26 06:03:32;;;;;;;1999.90;999.90;;;16.00;99.90;;;;;;5032101;28;20189;-71
2022/05/26 06:06:02;;;;;;;1999.90;999.90;;;16.00;99.90;;;;;;5031820;28;20171;-71
2022/05/26 06:08:28;;;;;;;1999.90;999.90;;;16.00;99.90;;;;;;5032036;28;20415;-71
2022/05/26 06:10:54;;;;;;;1999.90;999.90;;;16.00;99.90;;;;;;5032042;28;20414;-71
2022/05/26 06:13:20;;;;;;;1999.90;999.90;;;16.00;99.90;;;;;;5031988;28;20407;-71
2022/05/26 06:15:46;;;;;;;1999.90;999.90;;;16.10;99.90;;;;;;5031711;28;20281;-71
2022/05/26 06:18:13;;;;;;;1999.90;999.90;;;16.20;99.90;;;;;;5031816;28;20268;-71
2022/05/26 06:20:38;;;;;;;1999.90;999.90;;;16.20;99.90;;;;;;5031856;28;20813;-71
2022/05/26 06:23:04;;;;;;;1999.90;999.90;;;16.10;99.90;;;;;;5031870;28;20410;-71
2022/05/26 06:25:30;;;;;;;1999.90;999.90;;;16.20;99.90;;;;;;5031621;28;20198;-72
2022/05/26 06:30:40;;;;;;;1999.90;999.90;;;16.30;99.90;;;;;;5031846;28;20178;-72
2022/05/26 06:38:38;;;;;;;1999.90;999.90;;;16.50;99.90;;;;;;5032081;28;20458;-72
2022/05/26 06:43:55;;;;;;;1999.90;999.90;;;16.40;99.90;;;;;;5012303;28;20408;-71
2022/05/26 06:46:21;;;;;;;1999.90;999.90;;;16.40;99.90;;;;;;5014121;28;20967;-71
2022/05/26 06:48:47;;;;;;;1999.90;999.90;;;16.40;99.90;;;;;;5032001;28;20572;-71
2022/05/26 06:51:13;;;;;;;1999.90;999.90;;;16.40;99.90;;;;;;5031664;28;20552;-71
2022/05/26 06:53:39;;;;;;;1999.90;999.90;;;16.50;99.90;;;;;;5031541;28;20409;-72
2022/05/26 06:56:05;;;;;;;1999.90;999.90;;;16.60;99.90;;;;;;5031260;28;20403;-72
2022/05/26 06:58:31;;;;;;;1999.90;999.90;;;16.80;99.90;;;;;;5031614;28;20174;-72
2022/05/26 07:00:58;;;;;;;1999.90;999.90;;;16.80;99.90;;;;;;5031507;28;20453;-71
2022/05/26 07:03:23;;;;;;;1999.90;999.90;;;16.90;99.90;;;;;;5031582;28;20534;-72
2022/05/26 07:05:50;;;;;;;1999.90;999.90;;;16.90;99.90;;;;;;5031179;28;20452;-71
2022/05/26 07:08:16;;;;;;;1999.90;999.90;;;16.90;99.90;;;;;;5031446;28;20192;-72
2022/05/26 07:10:42;;;;;;;1999.90;999.90;;;17.00;99.90;;;;;;5034904;28;20954;-71
2022/05/26 07:13:09;;;;;;;1999.90;999.90;;;17.00;99.90;;;;;;5035245;28;20486;-71
2022/05/26 07:15:35;;;;;;;1999.90;999.90;;;17.00;99.90;;;;;;5034952;28;20499;-72
2022/05/26 07:18:04;;;;;;;1999.90;999.90;;;17.00;99.90;;;;;;5035141;28;20520;-71
2022/05/26 07:20:30;;;;;;;1999.90;999.90;;;17.00;99.90;;;;;;5035224;28;20738;-71
2022/05/26 07:22:56;;;;;;;1999.90;999.90;;;17.00;99.90;;;;;;5035054;28;20398;-72
2022/05/26 07:25:22;;;;;;;1999.90;999.90;;;17.10;99.90;;;;;;5034767;28;20407;-71
2022/05/26 07:27:48;;;;;;;1999.90;999.90;;;17.10;99.90;;;;;;5034880;28;20440;-71
2022/05/26 07:30:14;;;;;;;1999.90;999.90;;;17.20;99.90;;;;;;5034948;28;20773;-71
2022/05/26 07:32:39;;;;;;;1999.90;999.90;;;17.20;99.90;;;;;;5034940;28;20214;-71
2022/05/26 07:35:05;;;;;;;1999.90;999.90;;;17.40;99.90;;;;;;5034543;28;20184;-71
2022/05/26 07:43:20;;;;;;;1999.90;999.90;;;17.70;99.90;;;;;;4973602;28;20444;-71
2022/05/26 07:45:47;;;;;;;1999.90;999.90;;;17.70;99.90;;;;;;5009631;28;20458;-71
2022/05/26 07:48:13;;;;;;;1999.90;999.90;;;17.70;99.90;;;;;;5034575;28;20426;-72
2022/05/26 07:50:39;;;;;;;1999.90;999.90;;;17.70;99.90;;;;;;5034577;28;20882;-71
2022/05/26 07:53:04;;;;;;;1999.90;999.90;;;17.60;99.90;;;;;;5034557;28;20207;-71
2022/05/26 07:55:32;;;;;;;1999.90;999.90;;;17.70;99.90;;;;;;5034290;28;20240;-71
2022/05/26 07:57:58;;;;;;;1999.90;999.90;;;17.70;99.90;;;;;;5034394;28;20195;-71
2022/05/26 08:00:24;;;;;;;1999.90;999.90;;;17.80;99.90;;;;;;5034325;28;20598;-71
2022/05/26 08:02:50;;;;;;;1999.90;999.90;;;18.00;99.90;;;;;;5034348;28;20631;-71
2022/05/26 08:05:15;;;;;;;1999.90;999.90;;;18.00;99.90;;;;;;5034016;28;20406;-71
2022/05/26 08:07:43;;;;;;;1999.90;999.90;;;17.90;99.90;;;;;;5034340;28;20559;-71
2022/05/26 08:10:10;;;;;;;1999.90;999.90;;;17.80;99.90;;;;;;5034315;28;20163;-71
2022/05/26 08:12:36;;;;;;;1999.90;999.90;;;17.70;99.90;;;;;;5034187;28;20415;-72
2022/05/26 08:15:01;;;;;;;1999.90;999.90;;;17.80;99.90;;;;;;5033813;28;20416;-71
2022/05/26 08:17:27;;;;;;;1999.90;999.90;;;17.80;99.90;;;;;;5034005;28;20223;-72
2022/05/26 08:19:52;;;;;;;1999.90;999.90;;;17.80;99.90;;;;;;5033923;28;20228;-72
2022/05/26 08:22:19;;;;;;;1999.90;999.90;;;17.80;99.90;;;;;;5033343;28;20179;-72
2022/05/26 08:24:55;;;;;;;1999.90;999.90;;;17.90;99.90;;;;;;5033653;28;20167;-71
2022/05/26 08:27:21;;;;;;;1999.90;999.90;;;18.00;99.90;;;;;;5033590;28;21007;-72
2022/05/26 08:29:46;;;;;;;1999.90;999.90;;;17.90;99.90;;;;;;5033877;28;20470;-71
2022/05/26 08:32:15;;;;;;;1999.90;999.90;;;17.80;99.90;;;;;;5033770;28;21091;-71
2022/05/26 08:34:40;;;;;;;1999.90;999.90;;;17.80;99.90;;;;;;5033420;28;20212;-71
2022/05/26 08:37:12;;;;;;;1999.90;999.90;;;17.80;99.90;;;;;;5033626;28;20815;-71
2022/05/26 08:39:38;;;;;;;1999.90;999.90;;;17.80;99.90;;;;;;5033667;28;20192;-71
2022/05/26 08:42:04;;;;;;;1999.90;999.90;;;18.10;99.90;;;;;;5034064;28;20807;-71
2022/05/26 08:44:34;;;;;;;1999.90;999.90;;;18.30;99.90;;;;;;5033265;28;20172;-71
2022/05/26 08:47:15;;;;;;;1999.90;999.90;;;18.20;99.90;;;;;;5033544;28;20900;-71
2022/05/26 08:49:57;;;;;;;1999.90;999.90;;;18.20;99.90;;;;;;5033557;28;20917;-72
2022/05/26 08:52:25;;;;;;;1999.90;999.90;;;18.20;99.90;;;;;;5033461;28;20400;-71
2022/05/26 08:55:13;;;;;;;1999.90;999.90;;;18.20;99.90;;;;;;5033143;28;20848;-71
2022/05/26 08:57:38;;;;;;;1999.90;999.90;;;18.50;99.90;;;;;;5032358;28;20458;-72
2022/05/26 09:00:05;;;;;;;1999.90;999.90;;;18.70;99.90;;;;;;5051850;28;20443;-72
2022/05/26 09:02:36;;;;;;;1999.90;999.90;;;18.80;99.90;;;;;;5051788;28;20165;-71
2022/05/26 09:05:10;;;;;;;1999.90;999.90;;;18.80;99.90;;;;;;5051893;28;20421;-68
2022/05/26 09:13:24;;;;;;;1999.90;999.90;;;18.50;99.90;;;;;;5048774;28;20428;-70
2022/05/26 09:15:49;;;;;;;1999.90;999.90;;;18.60;99.90;;;;;;5047578;28;20435;-71
2022/05/26 09:18:18;;;;;;;1999.90;999.90;;;18.60;99.90;;;;;;5048606;28;20496;-70
2022/05/26 09:20:46;;;;;;;1999.90;999.90;;;18.70;99.90;;;;;;5048115;28;20203;-71
2022/05/26 09:23:24;;;;;;;1999.90;999.90;;;18.90;99.90;;;;;;5048138;28;20787;-71
2022/05/26 09:26:06;;;;;;;1999.90;999.90;;;19.00;99.90;;;;;;5047358;28;20447;-71
2022/05/26 09:28:37;;;;;;;1999.90;999.90;;;19.20;99.90;;;;;;5047975;28;20431;-71
2022/05/26 09:31:28;;;;;;;1999.90;999.90;;;19.40;99.90;;;;;;5056799;28;20435;-71
2022/05/26 09:34:17;;;;;;;1999.90;999.90;;;19.70;99.90;;;;;;5060275;28;20422;-70
2022/05/26 09:36:49;;;;;;;1999.90;999.90;;;19.60;99.90;;;;;;5051762;28;20440;-72
2022/05/26 09:39:24;;;;;;;1999.90;999.90;;;19.30;99.90;;;;;;5049288;28;20428;-71
2022/05/26 09:41:55;;;;;;;1999.90;999.90;;;19.30;99.90;;;;;;5062512;28;20469;-71
2022/05/26 09:44:45;;;;;;;1999.90;999.90;;;19.40;99.90;;;;;;5069931;28;20406;-71
2022/05/26 09:47:23;;;;;;;1999.90;999.90;;;19.30;99.90;;;;;;5068854;28;20425;-71
2022/05/26 09:49:52;;;;;;;1999.90;999.90;;;19.20;99.90;;;;;;5068579;28;20422;-70
2022/05/26 09:52:20;;;;;;;1999.90;999.90;;;19.40;99.90;;;;;;5070013;28;20424;-68
2022/05/26 09:54:47;;;;;;;1999.90;999.90;;;19.50;99.90;;;;;;5062854;28;20420;-72
2022/05/26 09:57:25;;;;;;;1999.90;999.90;;;19.70;99.90;;;;;;5069730;28;20434;-74
2022/05/26 09:59:51;;;;;;;1999.90;999.90;;;19.80;99.90;;;;;;5066064;28;20504;-73
2022/05/26 10:02:50;;;;;;;1999.90;999.90;;;20.00;99.90;;;;;;5069182;28;20407;-73
2022/05/26 10:05:44;;;;;;;1999.90;999.90;;;20.00;99.90;;;;;;5018702;28;20273;-74
2022/05/26 10:08:22;;;;;;;1999.90;999.90;;;20.00;99.90;;;;;;5054240;28;20439;-73
2022/05/26 10:11:28;;;;;;;1999.90;999.90;;;20.10;99.90;;;;;;5061628;28;20416;-73
2022/05/26 10:14:11;;;;;;;1999.90;999.90;;;20.30;99.90;;;;;;5052688;28;20428;-70
2022/05/26 10:16:52;;;;;;;1999.90;999.90;;;20.60;99.90;;;;;;5070020;28;20498;-69
2022/05/26 10:19:39;;;;;;;1999.90;999.90;;;20.50;99.90;;;;;;5065449;28;20475;-71
2022/05/26 10:22:29;;;;;;;1999.90;999.90;;;20.70;99.90;;;;;;5069486;28;20383;-74
2022/05/26 10:24:59;;;;;;;1999.90;999.90;;;20.50;99.90;;;;;;5069646;28;20404;-74
2022/05/26 10:27:35;;;;;;;1999.90;999.90;;;20.40;99.90;;;;;;5070377;28;20493;-74
2022/05/26 10:30:19;;;;;;;1999.90;999.90;;;20.60;99.90;;;;;;5070531;28;20407;-74
2022/05/26 10:33:02;;;;;;;1999.90;999.90;;;21.00;99.90;;;;;;5045453;28;20505;-74
2022/05/26 10:35:30;;;;;;;1999.90;999.90;;;21.30;99.90;;;;;;5055690;28;20427;-74
2022/05/26 10:38:20;;;;;;;1999.90;999.90;;;21.30;99.90;;;;;;5059314;28;20458;-74
2022/05/26 10:41:03;;;;;;;1999.90;999.90;;;21.10;99.90;;;;;;5055061;28;20462;-74
2022/05/26 10:43:55;;;;;;;1999.90;999.90;;;20.80;99.90;;;;;;5050184;28;20495;-74
2022/05/26 10:46:26;;;;;;;1999.90;999.90;;;20.50;99.90;;;;;;5053956;28;20927;-74
2022/05/26 10:49:02;;;;;;;1999.90;999.90;;;20.20;99.90;;;;;;5054314;28;20422;-74
2022/05/26 10:51:38;;;;;;;1999.90;999.90;;;20.10;99.90;;;;;;5054073;28;20409;-74
2022/05/26 10:54:11;;;;;;;1999.90;999.90;;;20.50;99.90;;;;;;5053943;28;20390;-74
2022/05/26 10:56:40;;;;;;;1999.90;999.90;;;20.90;99.90;;;;;;5054296;28;20433;-74
2022/05/26 10:59:17;;;;;;;1999.90;999.90;;;21.00;99.90;;;;;;5053896;28;20414;-74
2022/05/26 11:01:53;;;;;;;1999.90;999.90;;;20.60;99.90;;;;;;5035774;28;20853;-74
2022/05/26 11:04:29;;;;;;;1999.90;999.90;;;20.50;99.90;;;;;;5053554;28;20973;-74
2022/05/26 11:06:59;;;;;;;1999.90;999.90;;;20.80;99.90;;;;;;5054126;28;20426;-75
2022/05/26 11:09:37;;;;;;;1999.90;999.90;;;20.80;99.90;;;;;;5046176;28;20424;-74
2022/05/26 11:12:11;;;;;;;1999.90;999.90;;;20.50;99.90;;;;;;5062653;28;20433;-74
2022/05/26 11:17:50;;;;;;;1999.90;999.90;;;20.40;99.90;;;;;;5054020;28;20433;-74
2022/05/26 11:20:22;;;;;;;1999.90;999.90;;;20.70;99.90;;;;;;5053566;28;20953;-74
2022/05/26 11:22:51;;;;;;;1999.90;999.90;;;21.00;99.90;;;;;;5053425;28;20406;-74
2022/05/26 11:25:31;;;;;;;1999.90;999.90;;;21.10;99.90;;;;;;5053051;28;20431;-74
2022/05/26 11:27:59;;;;;;;1999.90;999.90;;;20.80;99.90;;;;;;5053613;28;20433;-74
2022/05/26 11:36:11;;;;;;;1999.90;999.90;;;20.60;99.90;;;;;;5053472;28;20418;-74
2022/05/26 11:38:46;;;;;;;1999.90;999.90;;;20.80;99.90;;;;;;5054113;28;20374;-74
2022/05/26 11:41:45;;;;;;;1999.90;999.90;;;20.90;99.90;;;;;;5053975;28;20444;-74
2022/05/26 11:44:11;;;;;;;1999.90;999.90;;;20.80;99.90;;;;;;5035473;28;20407;-74
2022/05/26 11:46:46;;;;;;;1999.90;999.90;;;21.00;99.90;;;;;;5049669;28;20439;-74
2022/05/26 11:49:43;;;;;;;1999.90;999.90;;;21.40;99.90;;;;;;5061975;28;20824;-74
2022/05/26 11:52:34;;;;;;;1999.90;999.90;;;21.60;99.90;;;;;;5053743;28;20385;-74
2022/05/26 11:55:03;;;;;;;1999.90;999.90;;;21.60;99.90;;;;;;5014979;28;20421;-74
2022/05/26 11:57:38;;;;;;;1999.90;999.90;;;21.70;99.90;;;;;;5052906;28;20480;-74
2022/05/26 12:00:40;;;;;;;1999.90;999.90;;;21.60;99.90;;;;;;5053505;28;20454;-74
2022/05/26 12:03:24;;;;;;;1999.90;999.90;;;21.60;99.90;;;;;;5053395;28;20407;-74
2022/05/26 12:06:12;;;;;;;1999.90;999.90;;;22.30;99.90;;;;;;5053083;28;20401;-74
2022/05/26 12:08:45;;;;;;;1999.90;999.90;;;23.10;99.90;;;;;;5053641;28;20402;-74
2022/05/26 12:11:12;;;;;;;1999.90;999.90;;;23.70;99.90;;;;;;5053709;28;20397;-74
2022/05/26 12:13:41;;;;;;;1999.90;999.90;;;23.10;99.90;;;;;;5053119;28;20413;-74
2022/05/26 12:16:19;;;;;;;1999.90;999.90;;;22.50;99.90;;;;;;5052777;28;20475;-75
2022/05/26 12:18:52;;;;;;;1999.90;999.90;;;23.10;99.90;;;;;;5053196;28;20415;-74
2022/05/26 12:21:27;;;;;;;1999.90;999.90;;;23.80;98.60;;;;;;5073300;28;20460;-75
2022/05/26 12:23:58;;;;;;;1999.90;999.90;;;24.00;94.40;;;;;;5072610;28;20941;-75
2022/05/26 12:26:45;;;;;;;1999.90;999.90;;;23.50;94.70;;;;;;5073068;28;20562;-75
2022/05/26 12:29:41;;;;;;;1999.90;999.90;;;23.00;94.80;;;;;;5073039;28;20418;-75
2022/05/26 12:32:12;;;;;;;1999.90;999.90;;;22.40;99.20;;;;;;5073384;28;20404;-75
2022/05/26 12:34:58;;;;;;;1999.90;999.90;;;22.60;98.50;;;;;;5072334;28;20377;-75
2022/05/26 12:37:44;;;;;;;1999.90;999.90;;;23.40;92.30;;;;;;5073186;28;20424;-75
2022/05/26 12:40:28;;;;;;;1999.90;999.90;;;23.70;89.70;;;;;;5072997;28;20453;-75
2022/05/26 12:42:53;;;;;;;1999.90;999.90;;;24.20;87.40;;;;;;5073228;28;20415;-75
2022/05/26 12:45:38;;;;;;;1999.90;999.90;;;24.40;85.30;;;;;;5072131;28;20471;-75
2022/05/26 12:48:29;;;;;;;1999.90;999.90;;;25.00;79.10;;;;;;5073036;28;20189;-75
2022/05/26 12:51:04;;;;;;;1999.90;999.90;;;25.70;72.90;;;;;;5073087;28;20413;-75
2022/05/26 12:53:32;;;;;;;1999.90;999.90;;;26.00;72.10;;;;;;5072992;28;20435;-75
2022/05/26 12:56:14;;;;;;;1999.90;999.90;;;26.40;62.30;;;;;;5071808;28;20471;-75
2022/05/26 12:58:51;;;;;;;1999.90;999.90;;;26.60;53.30;;;;;;5072541;28;20454;-75
2022/05/26 13:01:21;;;;;;;1999.90;999.90;;;26.50;51.20;;;;;;5072711;28;20433;-75
2022/05/26 13:03:57;;;;;;;1999.90;999.90;;;26.80;53.10;;;;;;5072577;28;20376;-75